Terminal Aerodrome Forecast
Issued by NWS

Home | Current Version | Previous Version | Text Only | Print | Product List | Glossary On
Versions: 1 2 3 4 5 6 7 8 9 10 11 12 13 14 15 16 17 18 19 20 21 22 23 24 25 26 27 28 29 30 31 32 33 34 35 36
000
FTUS44 KFWD 281336 AAA
TAFGKY
TAF AMD
KGKY 281336Z 2814/0112 03006KT P6SM SCT008 OVC030
     FM281500 05008KT 4SM BR OVC009
      TEMPO 2815/2818 2SM -FZDZ BR OVC004
     FM282000 08008KT 4SM -RA BR OVC006
     FM010000 06005KT 2SM -DZ BR OVC005=

USA.gov is the U.S. government's official web portal to all federal, state and local government web resources and services.